Time;durP1;ratioP1;P1;durP2;ratioP2;P2;SDS_P1;SDS_P2;PMS_P1;PMS_P2;Temp;Humidity;BMP_temperature;BMP_pressure;BME280_temperature;BME280_humidity;BME280_pressure;Samples;Min_cycle;Max_cycle;Signal;HPM_P1;HPM_P2
2023/11/16 00:01:14;;;;;;;4.72;1.13;;;;;;;7.28;64.51;100081.03;10514491;28;20059;-66
2023/11/16 00:06:16;;;;;;;3.53;0.95;;;;;;;7.26;64.48;100075.03;10516703;28;20202;-66
2023/11/16 00:11:18;;;;;;;2.80;1.30;;;;;;;7.18;64.54;100082.34;10496271;28;20040;-66
2023/11/16 00:16:21;;;;;;;4.68;1.00;;;;;;;7.04;64.74;100085.50;10490985;28;20135;-66
2023/11/16 00:21:23;;;;;;;2.53;0.90;;;;;;;6.98;65.02;100082.31;10511032;28;20142;-66
2023/11/16 00:26:26;;;;;;;1.17;0.80;;;;;;;6.94;65.00;100078.16;10495876;28;20036;-66
2023/11/16 00:31:32;;;;;;;2.72;0.98;;;;;;;6.87;65.10;100076.75;10510611;28;20975;-66
2023/11/16 00:36:38;;;;;;;8.02;1.15;;;;;;;6.79;65.24;100063.25;10515807;28;20036;-66
2023/11/16 00:41:40;;;;;;;4.57;0.85;;;;;;;6.72;65.18;100048.78;10514428;28;20044;-66
2023/11/16 00:46:43;;;;;;;1.67;1.13;;;;;;;6.61;65.43;100049.28;10506183;28;20060;-65
2023/11/16 00:51:46;;;;;;;1.98;0.82;;;;;;;6.57;65.44;100067.66;10504086;28;20048;-66
2023/11/16 00:56:48;;;;;;;4.15;1.48;;;;;;;6.45;65.47;100063.78;10521296;28;20120;-65
2023/11/16 01:01:51;;;;;;;2.30;0.82;;;;;;;6.38;65.71;100058.91;10505428;28;20044;-66
2023/11/16 01:06:53;;;;;;;0.70;0.70;;;;;;;6.37;65.84;100054.63;10520717;28;21017;-66
2023/11/16 01:11:55;;;;;;;3.58;1.02;;;;;;;6.26;65.95;100053.31;10497367;28;20127;-66
2023/11/16 01:17:03;;;;;;;3.72;1.55;;;;;;;6.20;66.13;100043.13;10521280;28;20063;-66
2023/11/16 01:22:07;;;;;;;2.22;1.17;;;;;;;6.21;66.02;100050.00;10518313;28;20044;-66
2023/11/16 01:27:18;;;;;;;3.70;1.05;;;;;;;6.21;66.16;100055.19;10521803;28;20442;-66
2023/11/16 01:32:20;;;;;;;2.25;0.90;;;;;;;6.26;65.95;100055.06;10517277;28;20538;-66
2023/11/16 01:37:22;;;;;;;2.38;0.90;;;;;;;6.25;66.17;100051.59;10503968;28;20040;-66
2023/11/16 01:42:25;;;;;;;4.70;1.23;;;;;;;6.32;66.12;100047.88;10521012;28;20045;-66
2023/11/16 01:47:27;;;;;;;2.22;1.20;;;;;;;6.42;66.15;100042.28;10500785;28;20059;-66
2023/11/16 01:52:31;;;;;;;1.48;1.08;;;;;;;6.43;65.91;100042.22;10499479;28;20043;-66
2023/11/16 01:57:33;;;;;;;5.63;1.77;;;;;;;6.46;65.83;100043.84;10515666;28;20150;-65
2023/11/16 02:02:37;;;;;;;3.00;1.00;;;;;;;6.50;65.81;100042.81;10502357;28;20047;-66
2023/11/16 02:07:39;;;;;;;3.40;1.15;;;;;;;6.61;65.81;100041.47;10500904;28;20069;-66
2023/11/16 02:12:51;;;;;;;2.63;1.45;;;;;;;6.78;65.71;100035.53;10498724;28;20407;-67
2023/11/16 02:17:56;;;;;;;1.63;0.73;;;;;;;6.96;65.39;100034.75;10519578;28;20160;-66
2023/11/16 02:23:02;;;;;;;1.63;0.80;;;;;;;7.07;65.30;100029.94;10515718;28;20044;-66
2023/11/16 02:28:04;;;;;;;6.03;1.13;;;;;;;7.13;65.14;100040.91;10518790;28;20487;-66
2023/11/16 02:33:06;;;;;;;3.65;2.00;;;;;;;7.07;65.03;100029.94;10518793;28;20036;-66
2023/11/16 02:38:16;;;;;;;1.98;1.40;;;;;;;6.90;65.06;100032.41;10518680;28;20139;-67
2023/11/16 02:43:21;;;;;;;5.15;1.98;;;;;;;6.76;65.39;100029.56;10494646;28;20124;-66
2023/11/16 02:48:23;;;;;;;3.13;1.52;;;;;;;6.62;65.64;100024.09;10515437;28;20044;-66
2023/11/16 02:53:25;;;;;;;2.47;1.15;;;;;;;6.59;65.90;100013.84;10481884;28;20280;-66
2023/11/16 02:58:27;;;;;;;5.43;1.55;;;;;;;6.62;65.77;100013.72;10517674;28;20139;-66
2023/11/16 03:03:29;;;;;;;2.03;1.10;;;;;;;6.48;66.09;100008.25;10516572;28;20121;-66
2023/11/16 03:08:32;;;;;;;1.88;1.10;;;;;;;6.40;66.29;100013.78;10516258;28;20130;-66
2023/11/16 03:13:34;;;;;;;1.00;0.75;;;;;;;6.34;66.48;100007.09;10515939;28;20063;-66
2023/11/16 03:18:36;;;;;;;2.88;1.02;;;;;;;6.40;66.33;100003.38;10515765;28;20057;-67
2023/11/16 03:23:38;;;;;;;4.03;1.17;;;;;;;6.41;66.25;100005.06;10494207;28;20063;-66
2023/11/16 03:28:42;;;;;;;5.68;1.77;;;;;;;6.48;66.30;99997.84;10514339;28;20582;-65
2023/11/16 03:33:43;;;;;;;3.90;1.02;;;;;;;6.48;66.25;100003.91;10498113;28;20051;-66
2023/11/16 03:38:49;;;;;;;3.03;1.00;;;;;;;6.49;66.23;100010.78;10514752;28;20391;-66
2023/11/16 03:43:50;;;;;;;4.18;1.00;;;;;;;6.55;66.05;100007.09;10496705;28;20058;-67
2023/11/16 03:48:52;;;;;;;1.27;0.68;;;;;;;6.58;66.04;99993.97;10515175;28;20139;-66
2023/11/16 03:53:55;;;;;;;5.43;1.17;;;;;;;6.60;65.90;99992.16;10516156;28;20044;-66
2023/11/16 03:58:56;;;;;;;2.05;0.93;;;;;;;6.57;65.89;99992.28;10488266;28;20043;-67
2023/11/16 04:03:58;;;;;;;0.65;0.65;;;;;;;6.54;65.98;99995.00;10514546;28;20078;-66
2023/11/16 04:09:01;;;;;;;3.47;1.17;;;;;;;6.42;66.41;99995.53;10516183;28;20130;-66
2023/11/16 04:14:04;;;;;;;6.10;1.35;;;;;;;6.43;66.37;99992.03;10494446;28;20120;-66
2023/11/16 04:19:06;;;;;;;3.38;1.35;;;;;;;6.34;66.41;99978.53;10514933;28;20046;-65
2023/11/16 04:24:11;;;;;;;1.35;0.88;;;;;;;6.47;66.17;99984.03;10509409;28;20051;-65
2023/11/16 04:29:14;;;;;;;4.00;0.82;;;;;;;6.53;66.27;99990.72;10512139;28;20130;-65
2023/11/16 04:34:16;;;;;;;1.08;0.85;;;;;;;6.58;66.06;99970.56;10496240;28;20046;-65
2023/11/16 04:39:19;;;;;;;2.53;1.33;;;;;;;6.63;66.14;99959.09;10497260;28;20101;-65
2023/11/16 04:44:21;;;;;;;1.35;0.60;;;;;;;6.65;66.00;99959.88;10515377;28;20040;-66
2023/11/16 04:49:23;;;;;;;5.03;0.95;;;;;;;6.65;65.91;99966.81;10512705;28;20044;-65
2023/11/16 04:54:26;;;;;;;1.15;1.00;;;;;;;6.57;66.15;99971.50;10512137;28;20419;-65
2023/11/16 04:59:29;;;;;;;1.45;1.10;;;;;;;6.50;66.05;99970.06;10512570;28;20059;-65
2023/11/16 05:04:32;;;;;;;2.97;0.90;;;;;;;6.44;66.22;99959.94;10511959;28;20178;-65
2023/11/16 05:09:34;;;;;;;1.10;0.98;;;;;;;6.43;66.07;99961.69;10511677;28;20563;-66
2023/11/16 05:14:36;;;;;;;1.45;0.60;;;;;;;6.42;66.22;99961.75;10491210;28;20044;-66
2023/11/16 05:19:38;;;;;;;3.80;1.00;;;;;;;6.37;66.42;99948.13;10511607;28;20385;-66
2023/11/16 05:24:40;;;;;;;0.73;0.73;;;;;;;6.33;66.18;99943.06;10508364;28;20048;-65
2023/11/16 05:29:42;;;;;;;2.53;1.15;;;;;;;6.26;66.42;99928.66;10517433;28;20063;-65
2023/11/16 05:34:44;;;;;;;1.67;1.20;;;;;;;6.30;66.28;99924.16;10517944;28;20143;-66
2023/11/16 05:39:46;;;;;;;2.53;1.58;;;;;;;6.31;66.51;99926.69;10521101;28;20054;-66
2023/11/16 05:44:48;;;;;;;2.10;1.10;;;;;;;6.08;66.48;99936.31;10520870;28;20040;-65
2023/11/16 05:49:50;;;;;;;2.28;1.52;;;;;;;6.11;66.58;99926.66;10519544;28;20067;-65
2023/11/16 05:54:52;;;;;;;5.05;1.80;;;;;;;6.17;66.39;99926.38;10520001;28;20105;-65
2023/11/16 05:59:54;;;;;;;5.07;2.38;;;;;;;6.20;66.41;99931.47;10519826;28;20117;-65
2023/11/16 06:04:57;;;;;;;4.78;2.80;;;;;;;6.19;66.50;99927.16;10507055;28;20044;-66
2023/11/16 06:09:59;;;;;;;5.10;2.08;;;;;;;6.23;66.40;99927.88;10501811;28;20048;-66
2023/11/16 06:15:01;;;;;;;5.00;2.28;;;;;;;6.13;66.63;99922.25;10499786;28;20058;-66
2023/11/16 06:20:03;;;;;;;5.00;1.50;;;;;;;6.11;66.57;99907.63;10497086;28;20052;-65
2023/11/16 06:25:10;;;;;;;6.55;2.10;;;;;;;6.14;66.58;99905.72;10488912;28;20586;-66
2023/11/16 06:30:13;;;;;;;2.95;1.48;;;;;;;6.14;66.75;99910.94;10498703;28;20492;-66
2023/11/16 06:35:15;;;;;;;3.17;1.38;;;;;;;6.14;66.87;99903.13;10476433;28;20756;-65
2023/11/16 06:40:18;;;;;;;1.70;1.17;;;;;;;6.24;66.57;99899.28;10495475;28;20064;-66
2023/11/16 06:45:21;;;;;;;3.45;1.38;;;;;;;6.22;66.61;99892.44;10493017;28;20557;-67
2023/11/16 06:50:24;;;;;;;1.65;1.10;;;;;;;6.32;66.45;99889.44;10498015;28;20697;-66
2023/11/16 06:55:26;;;;;;;2.80;1.35;;;;;;;6.34;66.51;99895.41;10493867;28;20138;-67
2023/11/16 07:00:28;;;;;;;4.32;1.30;;;;;;;6.33;66.48;99891.09;10481869;28;20044;-66
2023/11/16 07:05:32;;;;;;;1.90;1.17;;;;;;;6.35;66.27;99894.47;10506773;28;20052;-66
2023/11/16 07:10:37;;;;;;;1.30;1.13;;;;;;;6.40;65.99;99877.84;10498322;28;20047;-67
2023/11/16 07:15:42;;;;;;;1.60;1.08;;;;;;;6.48;65.92;99862.78;10498828;28;20052;-66
2023/11/16 07:20:47;;;;;;;1.45;0.82;;;;;;;6.58;65.87;99851.91;10515552;28;20067;-67
2023/11/16 07:25:49;;;;;;;1.10;1.00;;;;;;;6.60;65.37;99838.84;10512857;28;20123;-67
2023/11/16 07:30:52;;;;;;;1.73;1.20;;;;;;;6.41;65.56;99840.59;10486008;28;20466;-67
2023/11/16 07:35:57;;;;;;;5.05;2.13;;;;;;;6.40;65.86;99831.09;10506897;28;20059;-67
2023/11/16 07:41:00;;;;;;;4.97;1.80;;;;;;;6.37;65.70;99824.28;10512756;28;20058;-66
2023/11/16 07:46:03;;;;;;;2.65;1.55;;;;;;;6.42;65.74;99843.13;10496823;28;20042;-67
2023/11/16 07:51:07;;;;;;;2.17;1.35;;;;;;;6.39;65.73;99838.03;10496291;28;20055;-68
2023/11/16 07:56:10;;;;;;;3.17;1.90;;;;;;;6.58;65.63;99845.84;10512154;28;20135;-68
2023/11/16 08:01:12;;;;;;;2.22;1.25;;;;;;;6.73;65.60;99839.97;10512392;28;20075;-68
2023/11/16 08:06:15;;;;;;;4.82;1.90;;;;;;;6.85;65.41;99829.03;10511364;28;20151;-68
2023/11/16 08:11:19;;;;;;;4.10;1.88;;;;;;;6.95;65.36;99819.88;10513438;28;20048;-68
2023/11/16 08:16:21;;;;;;;2.75;1.70;;;;;;;7.09;65.08;99812.28;10515903;28;20051;-67
2023/11/16 08:21:25;;;;;;;7.82;2.22;;;;;;;7.10;64.79;99806.19;10515372;28;20044;-68
2023/11/16 08:26:27;;;;;;;1.70;1.35;;;;;;;7.09;64.99;99805.31;10516389;28;20036;-68
2023/11/16 08:31:29;;;;;;;3.47;1.50;;;;;;;7.14;64.98;99802.50;10495326;28;20404;-68
2023/11/16 08:36:31;;;;;;;4.03;1.70;;;;;;;7.11;65.29;99798.28;10513365;28;20044;-69
2023/11/16 08:41:33;;;;;;;3.00;1.73;;;;;;;7.49;65.14;99806.00;10513122;28;20036;-68
2023/11/16 08:46:41;;;;;;;5.63;2.30;;;;;;;7.96;64.57;99781.88;10496996;28;20072;-68
2023/11/16 08:51:47;;;;;;;4.65;1.88;;;;;;;8.21;64.19;99791.03;10515868;28;20101;-69
2023/11/16 08:56:50;;;;;;;3.55;1.98;;;;;;;8.41;63.87;99777.81;10514826;28;20120;-68
2023/11/16 09:01:52;;;;;;;3.17;1.63;;;;;;;8.64;63.47;99775.66;10511178;28;21114;-68
2023/11/16 09:06:54;;;;;;;7.03;2.17;;;;;;;8.85;63.21;99758.00;10503795;28;20047;-68
2023/11/16 09:12:05;;;;;;;3.42;1.85;;;;;;;9.01;63.07;99757.97;10499197;28;20294;-68
2023/11/16 09:17:16;;;;;;;8.68;2.05;;;;;;;9.09;63.39;99750.56;10517847;28;20075;-69
2023/11/16 09:22:19;;;;;;;5.13;2.70;;;;;;;9.19;63.05;99743.91;10497808;28;21112;-69
2023/11/16 09:27:21;;;;;;;3.53;1.92;;;;;;;9.20;62.53;99735.16;10516975;28;20542;-69
2023/11/16 09:32:23;;;;;;;5.10;2.72;;;;;;;8.83;62.74;99729.38;10519770;28;20063;-69
2023/11/16 09:37:28;;;;;;;5.47;2.10;;;;;;;8.65;62.88;99725.19;10517976;28;20044;-68
2023/11/16 09:42:31;;;;;;;4.90;2.35;;;;;;;8.52;63.21;99720.75;10509493;28;20375;-68
2023/11/16 09:47:45;;;;;;;5.47;2.63;;;;;;;8.55;63.34;99697.09;10514980;28;20048;-68
2023/11/16 09:52:47;;;;;;;5.45;2.17;;;;;;;8.51;63.25;99685.16;10500807;28;20052;-68
2023/11/16 09:57:52;;;;;;;5.85;2.03;;;;;;;8.61;63.21;99676.75;10520724;28;20093;-68
2023/11/16 10:02:58;;;;;;;6.68;2.47;;;;;;;8.79;62.77;99667.91;10519327;28;20101;-68
2023/11/16 10:08:14;;;;;;;4.05;2.17;;;;;;;8.76;62.86;99672.47;10520556;28;20055;-68
2023/11/16 10:13:17;;;;;;;7.07;3.08;;;;;;;8.99;62.76;99661.56;10510560;28;20492;-69
2023/11/16 10:18:22;;;;;;;3.50;1.92;;;;;;;9.15;62.38;99648.47;10518609;28;20587;-69
2023/11/16 10:23:24;;;;;;;7.18;2.30;;;;;;;9.17;62.49;99623.13;10519415;28;20109;-68
2023/11/16 10:28:27;;;;;;;6.78;1.92;;;;;;;9.18;62.07;99604.75;10518664;28;20143;-68
2023/11/16 10:33:30;;;;;;;5.95;2.03;;;;;;;9.27;62.21;99588.56;10518847;28;20071;-68
2023/11/16 10:38:34;;;;;;;7.05;2.33;;;;;;;9.32;61.97;99576.06;10500164;28;20134;-68
2023/11/16 10:43:38;;;;;;;3.00;1.50;;;;;;;9.39;61.92;99572.19;10518316;28;20052;-69
2023/11/16 10:48:40;;;;;;;4.03;1.80;;;;;;;9.32;61.69;99564.81;10500115;28;20047;-68
2023/11/16 10:53:43;;;;;;;3.50;1.60;;;;;;;9.13;61.71;99559.88;10517804;28;20093;-68
2023/11/16 10:58:47;;;;;;;6.97;2.53;;;;;;;8.94;62.46;99554.03;10517984;28;20054;-69
2023/11/16 11:03:51;;;;;;;4.90;1.58;;;;;;;8.86;62.71;99540.63;10514328;28;20524;-69
2023/11/16 11:08:53;;;;;;;9.43;2.55;;;;;;;8.80;62.80;99527.94;10518819;28;20056;-68
2023/11/16 11:13:57;;;;;;;2.83;1.60;;;;;;;8.75;62.96;99522.19;10516681;28;20132;-69
2023/11/16 11:19:03;;;;;;;3.95;1.92;;;;;;;8.86;62.81;99519.75;10516649;28;20474;-68
2023/11/16 11:24:08;;;;;;;2.78;1.77;;;;;;;9.01;62.70;99513.66;10498338;28;20054;-68
2023/11/16 11:29:12;;;;;;;8.23;2.28;;;;;;;9.07;62.85;99515.88;10516297;28;20044;-68
2023/11/16 11:34:15;;;;;;;6.60;2.42;;;;;;;9.41;62.45;99519.88;10515753;28;20133;-67
2023/11/16 11:39:17;;;;;;;5.35;1.90;;;;;;;9.60;62.06;99531.72;10517359;28;20526;-68
2023/11/16 11:44:19;;;;;;;3.30;1.38;;;;;;;9.62;61.98;99522.03;10515569;28;20044;-67
2023/11/16 11:49:21;;;;;;;3.22;1.67;;;;;;;9.62;61.66;99516.81;10516869;28;20044;-67
2023/11/16 11:54:39;;;;;;;7.45;2.45;;;;;;;9.61;61.62;99512.50;10516557;28;20150;-68
2023/11/16 11:59:41;;;;;;;3.83;1.60;;;;;;;9.56;61.55;99504.09;10516464;28;20059;-68
2023/11/16 12:04:43;;;;;;;6.82;1.95;;;;;;;9.47;61.63;99491.63;10515554;28;20047;-68
2023/11/16 12:10:05;;;;;;;8.38;1.60;;;;;;;9.26;61.96;99469.47;10516078;28;20534;-68
2023/11/16 12:15:25;;;;;;;;;;;;;;;9.11;62.32;99464.34;10515559;28;20051;-68
2023/11/16 12:20:29;;;;;;;5.68;1.90;;;;;;;9.33;61.93;99456.88;10514407;28;20841;-68
2023/11/16 12:25:33;;;;;;;3.10;1.60;;;;;;;9.37;61.91;99447.94;10512291;28;20051;-68
2023/11/16 12:30:37;;;;;;;3.08;1.45;;;;;;;9.39;62.03;99431.25;10515955;28;20047;-67
2023/11/16 12:35:40;;;;;;;4.15;1.95;;;;;;;9.38;62.14;99419.13;10515249;28;20044;-68
2023/11/16 12:40:42;;;;;;;2.00;1.23;;;;;;;9.35;61.75;99403.66;10521257;28;20146;-68
2023/11/16 12:45:44;;;;;;;5.13;1.70;;;;;;;9.18;62.07;99390.81;10505042;28;20440;-67
2023/11/16 12:50:46;;;;;;;5.47;2.13;;;;;;;9.19;62.35;99376.88;10523221;28;20059;-67
2023/11/16 12:55:48;;;;;;;5.00;1.80;;;;;;;9.25;61.97;99360.81;10522052;28;20903;-67
2023/11/16 13:00:51;;;;;;;4.40;1.85;;;;;;;9.21;62.36;99361.94;10523344;28;20044;-67
2023/11/16 13:05:54;;;;;;;6.40;2.28;;;;;;;9.29;62.47;99356.25;10522512;28;20040;-67
2023/11/16 13:10:56;;;;;;;4.20;2.03;;;;;;;9.15;62.26;99328.44;10521957;28;20172;-67
2023/11/16 13:15:59;;;;;;;3.58;1.80;;;;;;;8.77;63.00;99309.13;10522170;28;20044;-67
2023/11/16 13:21:09;;;;;;;7.90;2.22;;;;;;;8.80;63.57;99314.16;10504663;28;20450;-66
2023/11/16 13:26:14;;;;;;;4.68;2.22;;;;;;;8.77;64.24;99290.88;10521793;28;20124;-68
2023/11/16 13:31:16;;;;;;;4.18;2.20;;;;;;;8.65;64.29;99283.81;10503506;28;20888;-69
2023/11/16 13:36:19;;;;;;;5.20;2.10;;;;;;;8.78;64.12;99277.75;10521574;28;20040;-67
2023/11/16 13:41:22;;;;;;;6.15;1.95;;;;;;;9.05;64.20;99269.09;10520969;28;20043;-67
2023/11/16 13:46:25;;;;;;;4.70;2.10;;;;;;;9.11;64.10;99264.34;10520564;28;20051;-68
2023/11/16 13:51:29;;;;;;;5.68;2.40;;;;;;;9.02;64.22;99258.84;10519330;28;20388;-68
2023/11/16 13:56:31;;;;;;;3.53;1.73;;;;;;;9.00;64.38;99256.34;10517857;28;20055;-67
2023/11/16 14:01:33;;;;;;;5.57;2.10;;;;;;;8.96;64.44;99244.44;10520034;28;20056;-69
2023/11/16 14:06:36;;;;;;;4.22;2.03;;;;;;;9.03;64.73;99245.75;10518217;28;20083;-68
2023/11/16 14:11:39;;;;;;;3.40;1.80;;;;;;;8.92;65.17;99248.19;10520583;28;20040;-68
2023/11/16 14:16:41;;;;;;;4.13;2.30;;;;;;;8.70;65.71;99243.50;10520009;28;20048;-68
2023/11/16 14:21:43;;;;;;;8.70;2.38;;;;;;;8.72;65.34;99241.63;10501477;28;20051;-69
2023/11/16 14:26:49;;;;;;;3.45;1.73;;;;;;;8.63;65.66;99238.75;10519104;28;20060;-68
2023/11/16 14:31:53;;;;;;;5.28;2.28;;;;;;;8.50;65.90;99241.31;10514508;28;20043;-69
2023/11/16 14:36:55;;;;;;;7.97;2.10;;;;;;;8.52;65.76;99233.38;10498547;28;20514;-68
2023/11/16 14:41:57;;;;;;;5.90;2.20;;;;;;;8.38;66.14;99229.03;10507685;28;20063;-68
2023/11/16 14:46:59;;;;;;;5.25;1.83;;;;;;;8.38;66.36;99236.00;10519684;28;20141;-68
2023/11/16 14:52:09;;;;;;;7.40;1.90;;;;;;;8.40;66.31;99228.94;10516093;28;20044;-68
2023/11/16 14:57:12;;;;;;;3.95;1.95;;;;;;;8.47;66.28;99220.63;10517227;28;20138;-68
2023/11/16 15:02:16;;;;;;;4.60;2.10;;;;;;;8.38;66.39;99210.81;10510970;28;20044;-68
2023/11/16 15:07:18;;;;;;;10.30;2.38;;;;;;;8.33;66.68;99212.84;10496952;28;20036;-68
2023/11/16 15:12:20;;;;;;;4.88;1.98;;;;;;;8.34;66.74;99205.88;10498717;28;20161;-68
2023/11/16 15:17:23;;;;;;;3.13;2.00;;;;;;;8.31;66.92;99203.44;10518275;28;20075;-68
2023/11/16 15:22:25;;;;;;;5.13;1.80;;;;;;;8.33;67.15;99212.00;10516647;28;20066;-67
2023/11/16 15:27:27;;;;;;;3.75;2.00;;;;;;;8.35;67.22;99215.34;10517957;28;20392;-68
2023/11/16 15:32:31;;;;;;;2.22;1.52;;;;;;;8.29;66.92;99207.91;10497934;28;20049;-68
2023/11/16 15:37:34;;;;;;;5.70;2.10;;;;;;;8.24;66.99;99202.16;10516767;28;20052;-68
2023/11/16 15:42:37;;;;;;;5.68;1.83;;;;;;;8.24;67.12;99202.97;10516490;28;20044;-68
2023/11/16 15:47:39;;;;;;;3.80;1.50;;;;;;;8.26;67.16;99195.09;10516876;28;20058;-68
2023/11/16 15:52:42;;;;;;;2.88;1.63;;;;;;;8.27;67.17;99191.53;10515207;28;20517;-67
2023/11/16 15:57:46;;;;;;;2.33;1.40;;;;;;;8.30;67.10;99196.56;10516655;28;20055;-67
2023/11/16 16:02:49;;;;;;;3.72;1.85;;;;;;;8.32;67.06;99195.56;10493024;28;20048;-68
2023/11/16 16:07:51;;;;;;;4.68;1.83;;;;;;;8.37;67.08;99188.28;10512218;28;20040;-68
2023/11/16 16:12:55;;;;;;;1.58;1.23;;;;;;;8.39;66.82;99191.63;10494411;28;20052;-68
2023/11/16 16:17:57;;;;;;;5.47;1.88;;;;;;;8.44;66.84;99179.16;10513197;28;21107;-69
2023/11/16 16:23:05;;;;;;;8.50;2.33;;;;;;;8.45;66.60;99170.38;10513078;28;20085;-69
2023/11/16 16:28:07;;;;;;;6.00;1.70;;;;;;;8.31;66.93;99170.41;10509174;28;20052;-69
2023/11/16 16:33:10;;;;;;;8.43;2.42;;;;;;;8.14;67.22;99175.00;10507801;28;20044;-69
2023/11/16 16:38:12;;;;;;;3.00;1.63;;;;;;;8.08;67.47;99170.16;10509522;28;20036;-67
2023/11/16 16:43:15;;;;;;;5.65;2.65;;;;;;;8.07;67.72;99178.88;10494022;28;20048;-68
2023/11/16 16:48:17;;;;;;;4.28;2.30;;;;;;;8.03;67.84;99184.28;10513804;28;20155;-67
2023/11/16 16:53:19;;;;;;;4.05;1.80;;;;;;;8.16;67.54;99184.38;10515530;28;20044;-67
2023/11/16 16:58:21;;;;;;;8.48;2.20;;;;;;;8.26;67.45;99189.88;10513997;28;21238;-67
2023/11/16 17:03:24;;;;;;;4.18;1.90;;;;;;;8.21;67.36;99192.75;10506940;28;20134;-67
2023/11/16 17:08:30;;;;;;;4.68;2.25;;;;;;;8.18;67.39;99199.94;10487867;28;20060;-68
2023/11/16 17:13:35;;;;;;;6.03;1.88;;;;;;;8.17;67.39;99203.44;10506007;28;20055;-67
2023/11/16 17:18:40;;;;;;;9.00;2.15;;;;;;;8.12;67.13;99182.09;10506844;28;20044;-67
2023/11/16 17:23:43;;;;;;;6.18;2.35;;;;;;;8.12;67.36;99177.69;10486152;28;20039;-66
2023/11/16 17:28:47;;;;;;;5.75;1.83;;;;;;;8.06;67.30;99187.63;10514459;28;20547;-67
2023/11/16 17:33:50;;;;;;;6.30;2.17;;;;;;;8.07;67.71;99181.47;10509399;28;20108;-68
2023/11/16 17:38:55;;;;;;;7.35;2.85;;;;;;;8.15;67.51;99187.09;10508282;28;20043;-67
2023/11/16 17:43:57;;;;;;;4.82;2.53;;;;;;;8.21;67.46;99184.94;10513496;28;20427;-67
2023/11/16 17:49:04;;;;;;;6.00;2.88;;;;;;;8.29;67.17;99189.69;10515764;28;20121;-67
2023/11/16 17:54:10;;;;;;;5.10;2.45;;;;;;;8.09;67.29;99193.47;10497959;28;20174;-67
2023/11/16 17:59:12;;;;;;;5.00;2.70;;;;;;;7.94;67.69;99195.25;10511954;28;20044;-67
2023/11/16 18:04:14;;;;;;;12.40;3.33;;;;;;;7.76;67.92;99192.91;10506295;28;20055;-67
2023/11/16 18:09:19;;;;;;;6.22;3.08;;;;;;;7.91;67.91;99200.66;10490250;28;20101;-67
2023/11/16 18:14:22;;;;;;;5.55;3.45;;;;;;;8.07;67.59;99189.28;10496240;28;20086;-67
2023/11/16 18:19:26;;;;;;;4.50;2.30;;;;;;;7.95;67.70;99180.47;10503847;28;20724;-68
2023/11/16 18:24:30;;;;;;;9.15;3.17;;;;;;;7.94;67.50;99200.47;10497502;28;20051;-67
2023/11/16 18:29:33;;;;;;;8.05;2.97;;;;;;;8.06;67.51;99195.44;10498439;28;21998;-67
2023/11/16 18:34:43;;;;;;;7.50;3.30;;;;;;;7.91;67.51;99195.44;10498679;28;20544;-68
2023/11/16 18:39:46;;;;;;;7.03;2.70;;;;;;;7.91;67.80;99200.66;10502890;28;20087;-66
2023/11/16 18:44:50;;;;;;;9.43;3.58;;;;;;;7.92;67.65;99193.66;10475038;28;20129;-66
2023/11/16 18:49:54;;;;;;;9.23;3.58;;;;;;;7.74;67.58;99187.81;10500034;28;20837;-68
2023/11/16 18:54:56;;;;;;;4.88;2.88;;;;;;;7.83;67.79;99191.63;10506358;28;20071;-67
2023/11/16 19:00:09;;;;;;;24.23;6.82;;;;;;;7.91;67.51;99198.06;10511678;28;20043;-67
2023/11/16 19:05:13;;;;;;;24.85;6.20;;;;;;;7.90;67.64;99198.13;10511661;28;20072;-68
2023/11/16 19:10:17;;;;;;;12.90;4.60;;;;;;;7.87;67.61;99193.13;10497913;28;20044;-68
2023/11/16 19:15:20;;;;;;;25.17;5.72;;;;;;;7.86;67.81;99197.47;10513700;28;20047;-68
2023/11/16 19:20:24;;;;;;;10.27;4.60;;;;;;;7.89;67.68;99196.47;10497614;28;20138;-67
2023/11/16 19:25:28;;;;;;;17.05;5.70;;;;;;;7.84;67.52;99199.34;10497413;28;20568;-67
2023/11/16 19:30:30;;;;;;;11.10;3.95;;;;;;;7.78;67.83;99191.91;10516230;28;20044;-67
2023/11/16 19:35:32;;;;;;;6.50;3.75;;;;;;;7.77;67.60;99187.59;10515023;28;20139;-66
2023/11/16 19:40:36;;;;;;;9.23;3.92;;;;;;;7.65;67.70;99190.94;10496473;28;20048;-66
2023/11/16 19:45:40;;;;;;;7.65;3.45;;;;;;;7.66;67.94;99174.41;10512039;28;20451;-66
2023/11/16 19:50:43;;;;;;;6.72;3.70;;;;;;;7.82;67.94;99177.78;10513919;28;20036;-66
2023/11/16 19:55:46;;;;;;;5.30;3.10;;;;;;;7.90;67.58;99172.94;10513394;28;20055;-66
2023/11/16 20:00:47;;;;;;;8.65;4.05;;;;;;;7.85;67.58;99180.16;10515152;28;20052;-66
2023/11/16 20:05:50;;;;;;;18.80;8.27;;;;;;;7.93;67.53;99185.78;10515361;28;20044;-66
2023/11/16 20:10:52;;;;;;;13.65;6.40;;;;;;;7.80;67.23;99187.44;10513751;28;20156;-66
2023/11/16 20:15:57;;;;;;;16.77;4.45;;;;;;;7.83;67.52;99192.44;10511080;28;20052;-67
2023/11/16 20:21:02;;;;;;;8.65;3.45;;;;;;;7.90;67.51;99196.38;10490492;28;20040;-67
2023/11/16 20:26:04;;;;;;;9.00;3.17;;;;;;;7.91;67.38;99208.47;10510968;28;20040;-66
2023/11/16 20:31:06;;;;;;;9.25;4.22;;;;;;;7.88;67.26;99213.84;10507610;28;20070;-66
2023/11/16 20:36:14;;;;;;;7.35;4.28;;;;;;;7.86;67.40;99231.31;10504987;28;20088;-66
2023/11/16 20:41:16;;;;;;;12.43;5.55;;;;;;;7.79;67.38;99237.81;10507580;28;20081;-66
2023/11/16 20:46:22;;;;;;;17.52;5.93;;;;;;;7.74;67.41;99247.66;10493793;28;20072;-65
2023/11/16 20:51:24;;;;;;;11.65;3.75;;;;;;;7.82;67.33;99258.47;10513672;28;20144;-65
2023/11/16 20:56:27;;;;;;;8.65;3.97;;;;;;;7.93;67.26;99271.69;10514134;28;20044;-65
2023/11/16 21:01:29;;;;;;;5.72;2.97;;;;;;;7.92;67.22;99272.63;10499114;28;20726;-66
2023/11/16 21:06:31;;;;;;;6.50;3.00;;;;;;;7.95;67.32;99279.41;10500870;28;20052;-65
2023/11/16 21:11:37;;;;;;;15.82;6.55;;;;;;;8.06;67.15;99286.59;10519501;28;20512;-66
2023/11/16 21:16:40;;;;;;;8.32;4.78;;;;;;;8.09;67.06;99295.06;10502460;28;20652;-66
2023/11/16 21:21:42;;;;;;;7.68;3.90;;;;;;;8.11;67.14;99292.38;10520102;28;20461;-66
2023/11/16 21:26:44;;;;;;;7.93;3.80;;;;;;;8.09;67.17;99292.44;10521602;28;20078;-66
2023/11/16 21:31:47;;;;;;;10.43;3.50;;;;;;;8.09;67.18;99295.06;10518360;28;20044;-67
2023/11/16 21:36:49;;;;;;;8.18;3.35;;;;;;;8.11;67.10;99300.19;10518993;28;20081;-66
2023/11/16 21:41:51;;;;;;;9.10;4.25;;;;;;;8.08;67.15;99311.59;10519314;28;20059;-67
2023/11/16 21:46:53;;;;;;;6.45;3.22;;;;;;;8.03;67.18;99319.69;10518822;28;20556;-67
2023/11/16 21:51:57;;;;;;;12.07;3.90;;;;;;;8.03;67.22;99322.31;10521642;28;20052;-66
2023/11/16 21:57:01;;;;;;;5.00;3.03;;;;;;;8.08;67.19;99347.22;10517034;28;20055;-66
2023/11/16 22:02:04;;;;;;;6.38;3.10;;;;;;;8.11;66.99;99354.88;10520070;28;20035;-66
2023/11/16 22:07:06;;;;;;;10.20;3.53;;;;;;;8.08;67.01;99361.06;10519613;28;20192;-66
2023/11/16 22:12:08;;;;;;;8.30;3.85;;;;;;;7.94;67.28;99371.44;10518903;28;21236;-67
2023/11/16 22:17:10;;;;;;;5.85;3.40;;;;;;;7.83;67.38;99389.47;10516721;28;20143;-67
2023/11/16 22:22:12;;;;;;;4.60;2.58;;;;;;;7.84;67.49;99401.53;10519345;28;20570;-66
2023/11/16 22:27:14;;;;;;;6.97;3.13;;;;;;;7.84;67.39;99410.19;10519646;28;20039;-66
2023/11/16 22:32:17;;;;;;;5.35;2.55;;;;;;;7.88;67.20;99422.13;10500465;28;20659;-66
2023/11/16 22:37:19;;;;;;;6.35;2.45;;;;;;;7.85;67.08;99424.88;10518565;28;20040;-66
2023/11/16 22:42:21;;;;;;;4.95;2.78;;;;;;;7.93;67.04;99446.16;10483263;28;20101;-66
2023/11/16 22:47:24;;;;;;;5.47;2.67;;;;;;;7.94;67.00;99466.03;10518039;28;20496;-66
2023/11/16 22:52:26;;;;;;;5.35;2.28;;;;;;;7.95;67.08;99488.56;10515504;28;20492;-66
2023/11/16 22:57:28;;;;;;;6.28;3.13;;;;;;;7.93;67.13;99511.25;10517968;28;20131;-67
2023/11/16 23:02:32;;;;;;;7.38;2.50;;;;;;;7.88;67.03;99523.66;10516615;28;20052;-66
2023/11/16 23:07:37;;;;;;;5.82;2.55;;;;;;;7.88;66.88;99531.47;10516951;28;20048;-66
2023/11/16 23:12:39;;;;;;;5.07;1.88;;;;;;;7.83;66.45;99541.28;10512330;28;20408;-66
2023/11/16 23:17:43;;;;;;;5.55;2.72;;;;;;;7.68;66.54;99547.34;10515738;28;20733;-67
2023/11/16 23:22:46;;;;;;;5.53;2.95;;;;;;;7.59;66.65;99554.81;10481879;28;20533;-66
2023/11/16 23:27:48;;;;;;;4.30;2.25;;;;;;;7.70;66.77;99561.09;10513387;28;20040;-66
2023/11/16 23:32:50;;;;;;;4.57;2.40;;;;;;;7.69;66.72;99562.00;10515315;28;20518;-67
2023/11/16 23:37:52;;;;;;;5.45;2.60;;;;;;;7.65;67.01;99570.09;10496692;28;20276;-66
2023/11/16 23:42:54;;;;;;;3.90;1.88;;;;;;;7.69;66.90;99588.03;10514356;28;20519;-67